Time;durP1;ratioP1;P1;durP2;ratioP2;P2;SDS_P1;SDS_P2;PMS_P1;PMS_P2;Temp;Humidity;BMP_temperature;BMP_pressure;BME280_temperature;BME280_humidity;BME280_pressure;Samples;Min_cycle;Max_cycle;Signal;HPM_P1;HPM_P2
2022/08/16 00:00:49;;;;;;;21.52;17.55;;;;;;;22.06;79.59;100249.28;4988348;28;20029;-71
2022/08/16 00:03:14;;;;;;;18.00;13.52;;;;;;;21.98;80.17;100247.78;4985129;28;20057;-71
2022/08/16 00:05:40;;;;;;;17.10;14.68;;;;;;;22.13;79.50;100250.84;4973352;28;20505;-71
2022/08/16 00:08:06;;;;;;;25.10;17.42;;;;;;;22.19;79.37;100249.00;4977385;28;20022;-71
2022/08/16 00:10:32;;;;;;;20.95;16.80;;;;;;;22.08;80.05;100245.19;4968957;28;20027;-71
2022/08/16 00:12:59;;;;;;;18.65;15.40;;;;;;;22.04;79.80;100245.94;4968805;28;20015;-70
2022/08/16 00:15:33;;;;;;;20.40;17.15;;;;;;;21.97;80.17;100250.78;4981300;28;20027;-71
2022/08/16 00:17:58;;;;;;;18.15;15.30;;;;;;;21.94;80.24;100241.94;4975194;28;20022;-71
2022/08/16 00:20:24;;;;;;;19.52;16.30;;;;;;;22.01;79.73;100251.97;4977683;28;20057;-71
2022/08/16 00:22:50;;;;;;;21.48;16.83;;;;;;;21.57;81.79;100251.69;4988024;28;20100;-71
2022/08/16 00:25:18;;;;;;;22.65;15.20;;;;;;;21.99;79.84;100254.13;5004273;28;20160;-71
2022/08/16 00:27:44;;;;;;;19.13;15.93;;;;;;;22.31;78.59;100252.53;4969782;28;20074;-70
2022/08/16 00:30:13;;;;;;;17.23;14.75;;;;;;;22.18;78.88;100252.84;4978040;28;20030;-71
2022/08/16 00:32:40;;;;;;;27.13;14.85;;;;;;;21.94;80.00;100258.47;4999614;28;20018;-71
2022/08/16 00:35:10;;;;;;;21.55;15.73;;;;;;;22.25;78.63;100253.53;4974795;28;20022;-71
2022/08/16 00:37:35;;;;;;;16.98;14.85;;;;;;;22.38;78.22;100255.94;4977079;28;20031;-71
2022/08/16 00:40:01;;;;;;;18.55;14.95;;;;;;;22.48;77.57;100264.38;4967862;28;20106;-70
2022/08/16 00:42:30;;;;;;;21.15;14.82;;;;;;;22.30;78.33;100261.88;4976462;28;20030;-71
2022/08/16 00:45:00;;;;;;;17.75;15.45;;;;;;;22.07;79.03;100270.25;4971774;28;20019;-71
2022/08/16 00:47:25;;;;;;;24.80;17.10;;;;;;;22.10;79.13;100280.81;4984138;28;20030;-71
2022/08/16 00:49:52;;;;;;;23.17;17.35;;;;;;;22.03;79.25;100293.88;4984560;28;20029;-71
2022/08/16 00:52:18;;;;;;;22.80;15.95;;;;;;;22.00;79.34;100288.88;4980673;28;20030;-71
2022/08/16 00:54:44;;;;;;;18.27;14.88;;;;;;;21.99;79.40;100281.72;4979113;28;20026;-71
2022/08/16 00:57:11;;;;;;;18.75;13.27;;;;;;;22.20;78.26;100292.03;4971732;28;20031;-71
2022/08/16 00:59:38;;;;;;;18.70;15.63;;;;;;;21.98;79.01;100288.31;4991298;28;20022;-71
2022/08/16 01:02:07;;;;;;;20.25;15.18;;;;;;;22.00;79.08;100283.38;4991815;28;20054;-71
2022/08/16 01:04:34;;;;;;;19.48;15.13;;;;;;;22.16;78.35;100290.84;4977023;28;20034;-71
2022/08/16 01:07:02;;;;;;;19.35;14.25;;;;;;;22.15;78.43;100297.44;4982702;28;20033;-71
2022/08/16 01:09:30;;;;;;;23.52;15.73;;;;;;;22.06;78.53;100287.91;4982310;28;20070;-71
2022/08/16 01:11:56;;;;;;;24.80;17.30;;;;;;;21.65;80.43;100298.16;4972135;28;20429;-71
2022/08/16 01:14:36;;;;;;;20.35;15.27;;;;;;;21.63;81.03;100297.53;4986285;28;20019;-71
2022/08/16 01:17:03;;;;;;;23.90;17.58;;;;;;;21.58;80.81;100297.44;4982682;28;20065;-71
2022/08/16 01:19:52;;;;;;;21.40;15.02;;;;;;;21.76;80.46;100293.66;4973888;28;20110;-71
2022/08/16 01:22:28;;;;;;;20.73;16.00;;;;;;;21.92;79.11;100288.22;4978071;28;20104;-70
2022/08/16 01:25:01;;;;;;;23.25;15.68;;;;;;;21.68;80.26;100283.88;4990929;28;20026;-71
2022/08/16 01:27:32;;;;;;;19.30;15.38;;;;;;;21.74;80.53;100280.13;4985423;28;20030;-72
2022/08/16 01:30:06;;;;;;;27.58;17.50;;;;;;;21.66;80.34;100288.81;4984239;28;20023;-71
2022/08/16 01:32:35;;;;;;;24.00;18.00;;;;;;;21.56;81.43;100289.41;4976627;28;20121;-71
2022/08/16 01:35:09;;;;;;;23.38;15.40;;;;;;;21.62;80.83;100293.13;4971496;28;20086;-71
2022/08/16 01:37:43;;;;;;;19.38;15.93;;;;;;;21.84;80.05;100296.88;4979311;28;20054;-71
2022/08/16 01:40:11;;;;;;;25.85;15.25;;;;;;;22.06;79.10;100293.41;4971241;28;20022;-71
2022/08/16 01:42:36;;;;;;;21.38;16.45;;;;;;;22.08;78.74;100291.22;4977220;28;20401;-71
2022/08/16 01:45:02;;;;;;;20.23;17.80;;;;;;;21.74;79.81;100295.84;4990191;28;20018;-71
2022/08/16 01:47:29;;;;;;;22.48;16.85;;;;;;;21.70;80.12;100292.72;4974571;28;20390;-71
2022/08/16 01:49:54;;;;;;;21.67;17.10;;;;;;;21.81;79.34;100291.84;5001446;28;20033;-71
2022/08/16 01:52:20;;;;;;;17.50;15.55;;;;;;;21.67;79.95;100295.97;4987444;28;20019;-71
2022/08/16 01:54:45;;;;;;;19.20;15.88;;;;;;;21.60;80.43;100298.06;4981533;28;20024;-71
2022/08/16 01:57:11;;;;;;;21.02;17.10;;;;;;;21.58;80.58;100308.47;4987300;28;20045;-71
2022/08/16 01:59:37;;;;;;;27.05;17.38;;;;;;;21.66;79.95;100310.84;4970964;28;20035;-71
2022/08/16 02:02:04;;;;;;;19.48;16.45;;;;;;;21.57;80.61;100312.28;4975761;28;20073;-71
2022/08/16 02:04:32;;;;;;;20.90;16.17;;;;;;;21.61;80.68;100319.84;4987241;28;20050;-71
2022/08/16 02:06:58;;;;;;;21.38;16.70;;;;;;;21.66;79.88;100308.09;4971495;28;20022;-71
2022/08/16 02:09:25;;;;;;;20.02;16.65;;;;;;;21.57;80.26;100306.78;4989948;28;20033;-71
2022/08/16 02:11:54;;;;;;;23.90;19.13;;;;;;;21.65;80.01;100314.69;4981665;28;20374;-71
2022/08/16 02:14:28;;;;;;;27.17;16.85;;;;;;;21.61;79.86;100308.81;4981263;28;20058;-70
2022/08/16 02:16:56;;;;;;;19.73;15.85;;;;;;;21.69;79.72;100310.34;4987923;28;20037;-71
2022/08/16 02:19:28;;;;;;;21.45;16.30;;;;;;;21.82;78.96;100310.03;4972259;28;20110;-71
2022/08/16 02:21:55;;;;;;;24.20;17.52;;;;;;;21.81;78.49;100313.91;4980793;28;20033;-71
2022/08/16 02:24:21;;;;;;;18.33;16.25;;;;;;;21.66;79.38;100317.19;4974249;28;20030;-70
2022/08/16 02:26:47;;;;;;;20.42;16.42;;;;;;;21.59;79.80;100321.19;4991821;28;20029;-71
2022/08/16 02:29:14;;;;;;;19.13;16.90;;;;;;;21.65;79.51;100309.19;4992078;28;20027;-71
2022/08/16 02:31:39;;;;;;;18.55;16.63;;;;;;;21.72;79.13;100320.06;4981358;28;20023;-70
2022/08/16 02:34:07;;;;;;;22.00;16.45;;;;;;;21.65;79.69;100320.19;4986183;28;20029;-71
2022/08/16 02:36:33;;;;;;;23.90;17.08;;;;;;;21.25;81.18;100311.88;4976088;28;20383;-71
2022/08/16 02:38:58;;;;;;;18.85;16.25;;;;;;;21.26;81.10;100306.13;4991914;28;20081;-71
2022/08/16 02:41:24;;;;;;;25.20;16.38;;;;;;;21.35;80.82;100310.22;4972276;28;20031;-71
2022/08/16 02:43:50;;;;;;;23.90;17.98;;;;;;;21.39;80.45;100311.41;4972514;28;20489;-71
2022/08/16 02:46:15;;;;;;;23.00;18.73;;;;;;;21.17;81.67;100302.06;4986028;28;20023;-70
2022/08/16 02:48:41;;;;;;;24.90;20.42;;;;;;;21.11;82.21;100303.03;4987855;28;20029;-70
2022/08/16 02:51:09;;;;;;;23.55;19.10;;;;;;;21.05;82.56;100304.00;4981012;28;20023;-71
2022/08/16 02:53:36;;;;;;;24.48;20.70;;;;;;;20.97;82.86;100307.13;4989247;28;20023;-71
2022/08/16 02:56:04;;;;;;;22.55;18.80;;;;;;;20.84;83.99;100303.53;4988816;28;20023;-71
2022/08/16 02:58:32;;;;;;;21.48;17.55;;;;;;;20.94;83.19;100311.19;4982903;28;20551;-71
2022/08/16 03:00:58;;;;;;;32.08;20.58;;;;;;;20.83;83.63;100303.78;4974231;28;20058;-71
2022/08/16 03:03:25;;;;;;;27.63;21.25;;;;;;;20.90;83.91;100306.41;4972180;28;20062;-71
2022/08/16 03:05:51;;;;;;;25.58;18.67;;;;;;;21.01;83.27;100302.81;4976020;28;20061;-71
2022/08/16 03:08:17;;;;;;;24.35;20.42;;;;;;;21.10;82.72;100290.34;4991499;28;20419;-71
2022/08/16 03:10:43;;;;;;;24.08;19.92;;;;;;;20.95;83.28;100309.28;4988339;28;20035;-71
2022/08/16 03:13:09;;;;;;;26.98;20.50;;;;;;;20.84;83.63;100303.53;4973127;28;20113;-71
2022/08/16 03:15:35;;;;;;;36.03;21.00;;;;;;;20.80;84.05;100310.59;4988918;28;20150;-71
2022/08/16 03:18:01;;;;;;;28.08;20.70;;;;;;;20.86;84.09;100306.91;4982553;28;20120;-71
2022/08/16 03:20:27;;;;;;;26.83;21.08;;;;;;;20.49;85.84;100305.44;4988898;28;20023;-71
2022/08/16 03:22:53;;;;;;;31.30;22.23;;;;;;;20.69;85.14;100305.94;4978205;28;20126;-70
2022/08/16 03:25:18;;;;;;;35.10;23.50;;;;;;;20.80;84.54;100307.84;4988096;28;20055;-71
2022/08/16 03:27:44;;;;;;;32.83;21.63;;;;;;;20.69;85.07;100300.44;4982675;28;20027;-70
2022/08/16 03:30:14;;;;;;;29.38;21.17;;;;;;;20.79;84.39;100305.31;4977415;28;20061;-70
2022/08/16 03:32:39;;;;;;;25.75;21.75;;;;;;;20.72;85.00;100297.19;4991265;28;20473;-71
2022/08/16 03:35:06;;;;;;;27.35;21.80;;;;;;;20.72;85.03;100305.44;4991379;28;20033;-71
2022/08/16 03:37:31;;;;;;;30.27;23.58;;;;;;;20.65;85.48;100299.22;4990928;28;20080;-71
2022/08/16 03:39:57;;;;;;;25.77;20.77;;;;;;;20.67;85.59;100298.97;4991225;28;20026;-71
2022/08/16 03:42:23;;;;;;;28.75;21.85;;;;;;;20.82;84.72;100304.84;4990688;28;20041;-71
2022/08/16 03:44:48;;;;;;;30.40;21.95;;;;;;;20.86;84.29;100301.41;4985690;28;20094;-71
2022/08/16 03:47:14;;;;;;;27.73;21.42;;;;;;;20.77;85.02;100297.31;4985272;28;20022;-71
2022/08/16 03:49:39;;;;;;;38.60;24.02;;;;;;;20.86;84.57;100304.16;4990753;28;20032;-71
2022/08/16 03:52:06;;;;;;;30.02;22.65;;;;;;;20.88;84.29;100303.06;4987421;28;20038;-71
2022/08/16 03:54:32;;;;;;;30.02;22.60;;;;;;;20.96;83.92;100310.97;4971675;28;20047;-70
2022/08/16 03:56:57;;;;;;;26.42;20.95;;;;;;;20.89;84.07;100304.75;4971265;28;20023;-71
2022/08/16 03:59:23;;;;;;;24.08;21.30;;;;;;;20.94;83.81;100313.13;4981944;28;20023;-71
2022/08/16 04:01:48;;;;;;;32.83;20.73;;;;;;;20.98;83.23;100312.38;4973502;28;20029;-71
2022/08/16 04:04:13;;;;;;;31.58;20.55;;;;;;;21.05;83.56;100309.50;4983871;28;20030;-71
2022/08/16 04:06:39;;;;;;;30.88;20.85;;;;;;;21.06;83.28;100305.66;4987166;28;20062;-71
2022/08/16 04:09:04;;;;;;;32.80;20.48;;;;;;;21.21;82.64;100303.25;4981742;28;20050;-71
2022/08/16 04:11:30;;;;;;;31.58;22.40;;;;;;;21.33;81.91;100317.88;4971421;28;20029;-71
2022/08/16 04:13:55;;;;;;;38.13;21.65;;;;;;;21.42;81.40;100315.56;4982561;28;20033;-71
2022/08/16 04:16:21;;;;;;;33.08;22.65;;;;;;;21.24;81.88;100312.94;4981992;28;20099;-72
2022/08/16 04:18:48;;;;;;;32.83;22.88;;;;;;;21.25;82.00;100309.94;4987517;28;20027;-71
2022/08/16 04:21:13;;;;;;;30.52;22.52;;;;;;;21.31;81.70;100320.03;4986355;28;20114;-71
2022/08/16 04:23:39;;;;;;;29.48;22.90;;;;;;;21.30;81.77;100323.03;4987599;28;20105;-71
2022/08/16 04:26:06;;;;;;;28.35;23.48;;;;;;;21.31;81.68;100320.03;4972401;28;20027;-71
2022/08/16 04:28:31;;;;;;;35.17;23.52;;;;;;;21.23;81.39;100328.63;4971159;28;20030;-72
2022/08/16 04:30:57;;;;;;;28.98;23.05;;;;;;;21.13;82.42;100323.75;4986306;28;20022;-72
2022/08/16 04:33:24;;;;;;;32.38;20.73;;;;;;;21.21;82.08;100319.78;4994205;28;20481;-70
2022/08/16 04:35:50;;;;;;;34.63;20.92;;;;;;;21.32;81.81;100320.84;4994189;28;20030;-70
2022/08/16 04:38:16;;;;;;;25.45;22.17;;;;;;;21.16;82.14;100327.09;4994421;28;20488;-70
2022/08/16 04:40:41;;;;;;;28.60;23.50;;;;;;;21.24;81.86;100319.28;4994386;28;20029;-70
2022/08/16 04:43:07;;;;;;;32.25;20.92;;;;;;;21.20;82.13;100318.13;4992060;28;20022;-70
2022/08/16 04:45:32;;;;;;;28.63;23.60;;;;;;;21.00;82.87;100328.66;4984961;28;20066;-71
2022/08/16 04:47:58;;;;;;;32.50;27.85;;;;;;;21.13;81.94;100336.69;4983725;28;20053;-70
2022/08/16 04:50:26;;;;;;;41.15;26.58;;;;;;;21.16;81.83;100338.94;4986935;28;20485;-70
2022/08/16 04:52:53;;;;;;;37.17;23.52;;;;;;;20.99;82.86;100346.25;4988367;28;20111;-70
2022/08/16 04:55:21;;;;;;;32.67;26.00;;;;;;;21.03;82.53;100344.69;4983567;28;20504;-70
2022/08/16 04:57:50;;;;;;;35.53;27.20;;;;;;;21.00;82.74;100339.69;4987622;28;20023;-72
2022/08/16 05:00:21;;;;;;;37.65;25.40;;;;;;;21.05;82.37;100339.78;4993961;28;20034;-70
2022/08/16 05:02:49;;;;;;;37.67;28.58;;;;;;;21.16;81.73;100338.94;4993808;28;20114;-70
2022/08/16 05:05:14;;;;;;;35.15;26.48;;;;;;;21.11;82.05;100347.06;4990858;28;20453;-71
2022/08/16 05:07:40;;;;;;;36.20;28.33;;;;;;;21.05;82.13;100359.03;4984867;28;20026;-70
2022/08/16 05:10:07;;;;;;;37.53;30.77;;;;;;;21.00;82.52;100350.69;4977714;28;20042;-70
2022/08/16 05:12:33;;;;;;;38.58;29.08;;;;;;;21.12;82.00;100359.75;4981391;28;20021;-71
2022/08/16 05:14:59;;;;;;;38.97;29.02;;;;;;;20.99;82.17;100355.31;4984500;28;20117;-70
2022/08/16 05:17:25;;;;;;;40.25;29.35;;;;;;;21.03;82.18;100361.22;4984569;28;20033;-71
2022/08/16 05:19:50;;;;;;;42.60;29.92;;;;;;;21.00;81.90;100356.19;4991979;28;20045;-70
2022/08/16 05:22:16;;;;;;;44.45;29.55;;;;;;;21.06;81.68;100356.06;4990199;28;20023;-70
2022/08/16 05:24:42;;;;;;;46.45;30.10;;;;;;;21.30;81.05;100353.31;4987213;28;20040;-70
2022/08/16 05:27:07;;;;;;;54.83;30.13;;;;;;;21.36;80.67;100355.94;4993705;28;20022;-70
2022/08/16 05:29:33;;;;;;;48.75;28.65;;;;;;;21.39;80.25;100360.97;4993179;28;20038;-71
2022/08/16 05:32:00;;;;;;;42.85;29.17;;;;;;;21.34;80.08;100360.88;4974963;28;20023;-70
2022/08/16 05:34:26;;;;;;;46.22;30.48;;;;;;;21.46;80.19;100371.03;4979159;28;20053;-70
2022/08/16 05:36:56;;;;;;;42.75;29.85;;;;;;;21.52;79.42;100373.66;4989999;28;20036;-70
2022/08/16 05:39:24;;;;;;;48.17;30.48;;;;;;;21.50;79.52;100377.72;4975988;28;20058;-70
2022/08/16 05:41:51;;;;;;;32.53;27.08;;;;;;;21.31;80.10;100386.13;4992343;28;20030;-70
2022/08/16 05:44:18;;;;;;;45.97;28.77;;;;;;;21.46;79.81;100376.53;4990392;28;20521;-70
2022/08/16 05:46:44;;;;;;;42.65;30.17;;;;;;;21.51;79.22;100384.88;4992342;28;20058;-71
2022/08/16 05:49:14;;;;;;;37.17;28.77;;;;;;;21.65;78.73;100391.84;4993028;28;20040;-70
2022/08/16 05:51:45;;;;;;;36.88;28.20;;;;;;;21.63;78.74;100393.97;4981492;28;20032;-70
2022/08/16 05:54:12;;;;;;;43.72;29.35;;;;;;;21.75;78.46;100397.53;4980578;28;20108;-70
2022/08/16 05:56:39;;;;;;;43.28;30.40;;;;;;;21.87;78.01;100401.09;4982254;28;20030;-70
2022/08/16 05:59:04;;;;;;;38.85;27.33;;;;;;;21.99;77.50;100403.84;4991582;28;20049;-70
2022/08/16 06:01:29;;;;;;;36.72;27.45;;;;;;;;;;4979341;28;20053;-70
2022/08/16 06:03:55;;;;;;;42.50;28.80;;;;;;;21.73;78.50;100413.50;4979969;28;20042;-71
2022/08/16 06:06:20;;;;;;;40.72;29.08;;;;;;;21.87;78.28;100411.31;4992724;28;20022;-71
2022/08/16 06:08:46;;;;;;;40.03;29.95;;;;;;;21.59;79.37;100417.59;4979857;28;20065;-70
2022/08/16 06:11:11;;;;;;;43.83;28.05;;;;;;;21.71;79.23;100412.88;4973283;28;20031;-70
2022/08/16 06:13:37;;;;;;;41.95;28.60;;;;;;;22.03;77.93;100415.19;4973322;28;20030;-70
2022/08/16 06:16:06;;;;;;;52.70;29.80;;;;;;;22.16;77.04;100410.25;4973225;28;20026;-71
2022/08/16 06:18:32;;;;;;;44.78;26.30;;;;;;;22.14;77.09;100417.94;4980757;28;20113;-70
2022/08/16 06:20:58;;;;;;;41.70;27.52;;;;;;;22.46;76.26;100415.53;4989368;28;20455;-70
2022/08/16 06:23:25;;;;;;;40.67;26.38;;;;;;;22.47;75.48;100414.44;4975283;28;20118;-70
2022/08/16 06:25:51;;;;;;;37.50;24.15;;;;;;;22.65;75.16;100418.06;4984215;28;20027;-71
2022/08/16 06:28:16;;;;;;;36.95;23.92;;;;;;;22.69;74.45;100420.09;4981475;28;20090;-71
2022/08/16 06:30:42;;;;;;;34.60;22.23;;;;;;;22.64;74.26;100410.88;4973585;28;20130;-70
2022/08/16 06:33:08;;;;;;;35.72;21.40;;;;;;;22.76;72.58;100419.94;4970087;28;20089;-70
2022/08/16 06:35:35;;;;;;;36.00;21.85;;;;;;;22.80;71.79;100426.59;4966958;28;20041;-71
2022/08/16 06:38:01;;;;;;;44.13;22.95;;;;;;;22.56;72.95;100430.59;4974461;28;20022;-71
2022/08/16 06:40:27;;;;;;;31.48;21.38;;;;;;;22.57;73.14;100432.28;4986089;28;20153;-70
2022/08/16 06:42:52;;;;;;;34.95;23.98;;;;;;;22.97;71.59;100433.00;4978511;28;20109;-71
2022/08/16 06:45:18;;;;;;;37.47;22.63;;;;;;;22.80;72.30;100432.13;4983134;28;20121;-71
2022/08/16 06:47:43;;;;;;;32.70;21.42;;;;;;;22.87;71.64;100438.34;4970370;28;20034;-71
2022/08/16 06:50:10;;;;;;;44.78;22.38;;;;;;;22.85;72.00;100446.03;4980652;28;20170;-70
2022/08/16 06:52:35;;;;;;;38.63;22.23;;;;;;;22.84;71.19;100444.34;4978938;28;20049;-70
2022/08/16 06:55:06;;;;;;;31.40;22.67;;;;;;;22.70;71.98;100437.47;4971669;28;20023;-70
2022/08/16 06:57:32;;;;;;;25.42;19.63;;;;;;;22.74;71.78;100433.13;4982018;28;20109;-70
2022/08/16 06:59:57;;;;;;;26.58;19.17;;;;;;;23.17;70.83;100437.19;4976525;28;20113;-70
2022/08/16 07:02:23;;;;;;;30.02;18.25;;;;;;;22.87;70.87;100438.34;4972052;28;20069;-70
2022/08/16 07:04:48;;;;;;;29.42;17.38;;;;;;;23.18;70.69;100438.84;4975876;28;20057;-71
2022/08/16 07:07:14;;;;;;;25.42;18.13;;;;;;;22.88;71.07;100442.78;4970699;28;20033;-70
2022/08/16 07:09:39;;;;;;;36.40;19.10;;;;;;;22.65;72.16;100440.97;4985089;28;20036;-70
2022/08/16 07:12:05;;;;;;;33.90;18.05;;;;;;;22.61;72.56;100433.44;4974787;28;20032;-70
2022/08/16 07:14:31;;;;;;;36.53;17.60;;;;;;;22.89;71.77;100440.88;4970524;28;20041;-70
2022/08/16 07:16:57;;;;;;;32.08;16.13;;;;;;;23.05;71.04;100433.69;4972081;28;20029;-70
2022/08/16 07:19:23;;;;;;;27.02;14.40;;;;;;;23.37;70.56;100437.50;4973038;28;20022;-71
2022/08/16 07:21:49;;;;;;;26.55;16.10;;;;;;;23.50;69.15;100436.31;4978922;28;20050;-70
2022/08/16 07:24:16;;;;;;;24.88;14.43;;;;;;;23.43;69.50;100441.19;4967111;28;20027;-70
2022/08/16 07:26:43;;;;;;;25.58;14.43;;;;;;;23.76;68.76;100434.78;4979560;28;20029;-71
2022/08/16 07:29:09;;;;;;;29.88;12.25;;;;;;;24.25;65.88;100437.56;4979959;28;20026;-70
2022/08/16 07:31:34;;;;;;;22.27;11.30;;;;;;;24.08;65.84;100444.03;4982714;28;20118;-71
2022/08/16 07:34:01;;;;;;;24.35;12.60;;;;;;;23.68;67.39;100449.88;4981235;28;20050;-70
2022/08/16 07:36:26;;;;;;;21.80;12.40;;;;;;;23.79;66.82;100445.31;4972794;28;20081;-72
2022/08/16 07:38:52;;;;;;;22.63;11.10;;;;;;;23.85;66.29;100449.81;4985871;28;20019;-72
2022/08/16 07:41:17;;;;;;;16.88;9.43;;;;;;;24.18;65.01;100448.00;4975500;28;20023;-72
2022/08/16 07:43:44;;;;;;;24.63;10.00;;;;;;;23.99;65.59;100459.38;4985759;28;20543;-70
2022/08/16 07:46:10;;;;;;;19.60;8.88;;;;;;;24.04;64.46;100448.41;4977545;28;20014;-73
2022/08/16 07:48:36;;;;;;;21.20;9.48;;;;;;;24.15;63.29;100454.06;4973388;28;20026;-71
2022/08/16 07:51:01;;;;;;;13.70;8.23;;;;;;;24.31;63.27;100458.66;5024127;23;20037;-71
2022/08/16 07:53:29;;;;;;;22.08;10.23;;;;;;;24.58;62.42;100454.03;5003549;28;20030;-71
2022/08/16 07:55:56;;;;;;;20.58;9.93;;;;;;;24.56;62.17;100461.75;5001223;28;20018;-71
2022/08/16 07:58:21;;;;;;;18.38;9.88;;;;;;;24.59;62.11;100461.25;5015954;28;20072;-70
2022/08/16 08:00:47;;;;;;;18.65;10.63;;;;;;;24.41;62.43;100464.38;4994397;28;20023;-71
2022/08/16 08:03:12;;;;;;;17.38;9.30;;;;;;;24.76;61.12;100471.38;4987135;28;20068;-71
2022/08/16 08:05:39;;;;;;;14.35;9.18;;;;;;;24.33;62.03;100473.09;4984008;28;20036;-71
2022/08/16 08:08:05;;;;;;;17.95;7.65;;;;;;;25.16;59.36;100466.22;4996411;28;20112;-71
2022/08/16 08:10:30;;;;;;;12.90;8.10;;;;;;;25.62;58.49;100469.31;5007030;28;20026;-70
2022/08/16 08:12:56;;;;;;;17.35;8.25;;;;;;;25.57;58.06;100474.84;4991380;28;20026;-70
2022/08/16 08:15:23;;;;;;;16.02;9.30;;;;;;;25.45;58.40;100474.19;4987112;28;20033;-71
2022/08/16 08:17:49;;;;;;;19.75;8.23;;;;;;;25.48;58.66;100473.66;4997000;28;20100;-70
2022/08/16 08:20:17;;;;;;;17.83;8.93;;;;;;;25.56;58.07;100481.50;4989135;28;20105;-71
2022/08/16 08:22:45;;;;;;;16.48;7.53;;;;;;;25.50;57.17;100477.00;4991603;28;20030;-70
2022/08/16 08:25:12;;;;;;;14.00;7.95;;;;;;;25.23;57.88;100481.78;5013780;28;20023;-70
2022/08/16 08:27:37;;;;;;;16.52;8.57;;;;;;;25.65;57.78;100479.03;4991587;28;20030;-70
2022/08/16 08:30:04;;;;;;;11.35;7.03;;;;;;;25.96;56.61;100485.63;5010453;28;20022;-70
2022/08/16 08:32:30;;;;;;;23.02;7.45;;;;;;;25.93;56.70;100486.16;4998885;28;20030;-70
2022/08/16 08:34:57;;;;;;;13.68;8.45;;;;;;;25.56;56.80;100495.34;4995846;28;20026;-73
2022/08/16 08:37:26;;;;;;;12.48;7.18;;;;;;;26.00;56.34;100492.28;4988417;28;20022;-71
2022/08/16 08:39:52;;;;;;;17.50;7.60;;;;;;;26.18;56.00;100494.59;4988283;28;20068;-70
2022/08/16 08:42:17;;;;;;;10.80;7.30;;;;;;;25.92;56.12;100501.97;4989389;28;20404;-71
2022/08/16 08:44:43;;;;;;;15.73;7.78;;;;;;;25.89;56.49;100507.25;5008997;28;20015;-70
2022/08/16 08:47:08;;;;;;;17.27;8.18;;;;;;;25.85;55.05;100495.00;4991483;28;20037;-71
2022/08/16 08:49:35;;;;;;;20.88;6.75;;;;;;;26.17;54.77;100504.03;5010443;28;20112;-72
2022/08/16 08:52:03;;;;;;;8.52;5.85;;;;;;;26.68;53.36;100498.69;4989753;28;20524;-71
2022/08/16 08:54:29;;;;;;;20.90;7.75;;;;;;;26.09;54.48;100524.00;4991678;28;20030;-71
2022/08/16 08:56:55;;;;;;;17.27;7.55;;;;;;;25.97;54.80;100507.56;4988168;28;20022;-72
2022/08/16 08:59:20;;;;;;;17.25;7.15;;;;;;;26.38;54.20;100509.66;4990092;28;20243;-71
2022/08/16 09:01:46;;;;;;;15.52;7.75;;;;;;;26.23;54.32;100522.38;4987451;28;20102;-71
2022/08/16 09:04:13;;;;;;;25.67;7.38;;;;;;;26.07;54.29;100525.34;5006535;28;20037;-71
2022/08/16 09:06:40;;;;;;;16.02;7.88;;;;;;;25.63;55.14;100522.84;4986032;28;20026;-72
2022/08/16 09:09:08;;;;;;;22.92;7.40;;;;;;;25.89;54.66;100521.09;4988528;28;20041;-73
2022/08/16 09:11:35;;;;;;;26.13;8.10;;;;;;;26.22;53.86;100529.06;4996345;28;20026;-70
2022/08/16 09:14:01;;;;;;;17.13;6.53;;;;;;;26.61;53.40;100519.50;4992403;28;20029;-70
2022/08/16 09:16:26;;;;;;;14.80;7.38;;;;;;;26.66;52.47;100516.72;5001247;28;20100;-73
2022/08/16 09:18:51;;;;;;;17.50;8.30;;;;;;;26.88;52.14;100513.75;5017953;28;20037;-70
2022/08/16 09:21:19;;;;;;;19.67;8.13;;;;;;;27.36;50.70;100508.78;5000016;28;20026;-70
2022/08/16 09:23:45;;;;;;;20.42;7.80;;;;;;;27.33;50.41;100514.91;4993414;28;20034;-70
2022/08/16 09:26:14;;;;;;;13.27;7.78;;;;;;;27.01;51.13;100524.31;5005176;28;20141;-72
2022/08/16 09:28:42;;;;;;;13.93;8.25;;;;;;;26.94;51.30;100512.63;4990741;28;20108;-69
2022/08/16 09:31:09;;;;;;;14.30;8.13;;;;;;;27.25;50.56;100503.22;5016136;28;20057;-70
2022/08/16 09:33:36;;;;;;;22.08;8.70;;;;;;;27.21;51.49;100506.84;5000608;28;20027;-69
2022/08/16 09:36:02;;;;;;;15.18;7.30;;;;;;;27.46;51.13;100508.78;4991267;28;20034;-72
2022/08/16 09:38:30;;;;;;;14.75;8.40;;;;;;;27.89;50.04;100517.63;4996301;28;20038;-70
2022/08/16 09:40:56;;;;;;;18.30;6.78;;;;;;;27.88;50.05;100510.41;4994041;28;20022;-70
2022/08/16 09:43:22;;;;;;;23.60;8.80;;;;;;;27.98;50.32;100529.88;4994417;28;20027;-71
2022/08/16 09:45:48;;;;;;;13.68;7.32;;;;;;;27.41;51.63;100522.69;4990757;28;20019;-71
2022/08/16 09:48:14;;;;;;;17.67;8.52;;;;;;;27.22;50.54;100525.19;4993893;28;20104;-72
2022/08/16 09:50:43;;;;;;;17.05;7.15;;;;;;;27.27;49.73;100517.69;4990668;28;20091;-69
2022/08/16 09:53:15;;;;;;;18.13;8.27;;;;;;;27.49;49.16;100524.91;4991269;28;20028;-70
2022/08/16 09:55:47;;;;;;;13.10;7.18;;;;;;;27.76;49.39;100525.44;4991087;28;20377;-69
2022/08/16 09:58:12;;;;;;;21.80;8.95;;;;;;;27.25;50.70;100525.44;4996718;28;20050;-69
2022/08/16 10:00:39;;;;;;;18.73;8.63;;;;;;;27.02;50.95;100537.09;5000968;28;20056;-70
2022/08/16 10:03:04;;;;;;;25.30;7.55;;;;;;;27.29;49.98;100532.13;4993895;28;20029;-70
2022/08/16 10:05:32;;;;;;;11.70;7.30;;;;;;;27.07;49.57;100528.81;4988639;28;20036;-72
2022/08/16 10:07:58;;;;;;;15.68;7.15;;;;;;;27.40;48.11;100526.59;4993682;28;20014;-70
2022/08/16 10:10:24;;;;;;;14.32;6.07;;;;;;;28.04;47.36;100531.53;4994052;28;20025;-70
2022/08/16 10:15:34;;;;;;;11.63;7.60;;;;;;;27.03;50.13;100528.47;4995167;28;20026;-70
2022/08/16 10:18:05;;;;;;;18.98;7.25;;;;;;;26.90;49.56;100544.84;4986558;28;20114;-70
2022/08/16 10:20:33;;;;;;;17.20;6.70;;;;;;;26.94;49.74;100524.59;4999421;28;20043;-71
2022/08/16 10:22:58;;;;;;;15.57;7.30;;;;;;;27.68;48.23;100534.38;4991106;28;20281;-70
2022/08/16 10:25:24;;;;;;;14.93;6.95;;;;;;;28.19;47.29;100534.25;4994080;28;20033;-71
2022/08/16 10:27:49;;;;;;;12.38;6.47;;;;;;;28.61;46.56;100507.91;4994377;28;20378;-70
2022/08/16 10:30:16;;;;;;;10.52;6.18;;;;;;;29.07;45.04;100527.16;5004635;28;20025;-72
2022/08/16 10:32:41;;;;;;;14.75;5.80;;;;;;;28.92;44.80;100531.72;4994113;28;20026;-72
2022/08/16 10:35:07;;;;;;;14.23;6.93;;;;;;;28.69;45.27;100526.81;5004252;28;20038;-70
2022/08/16 10:37:32;;;;;;;13.35;7.28;;;;;;;29.10;43.98;100523.78;4992553;28;20428;-73
2022/08/16 10:40:00;;;;;;;10.93;5.97;;;;;;;29.61;42.80;100538.19;5002876;28;20699;-70
2022/08/16 10:42:26;;;;;;;11.07;5.72;;;;;;;29.39;43.29;100524.66;4987938;28;20413;-69
2022/08/16 10:44:52;;;;;;;10.18;5.65;;;;;;;29.03;43.73;100531.66;4988632;28;20054;-72
2022/08/16 10:47:17;;;;;;;13.02;5.85;;;;;;;29.25;44.17;100529.25;4990973;28;20115;-71
2022/08/16 10:49:43;;;;;;;8.90;6.15;;;;;;;29.69;43.02;100534.75;5010029;28;20034;-73
2022/08/16 10:52:09;;;;;;;7.85;5.38;;;;;;;30.08;43.20;100535.75;4990767;28;20049;-71
2022/08/16 10:54:34;;;;;;;11.93;5.47;;;;;;;29.21;43.51;100533.72;4986470;28;20080;-71
2022/08/16 10:57:02;;;;;;;13.73;5.43;;;;;;;30.14;42.23;100535.41;4990644;28;20026;-73
2022/08/16 10:59:30;;;;;;;13.88;5.70;;;;;;;30.09;42.42;100537.41;4990807;28;20026;-71
2022/08/16 11:01:56;;;;;;;12.35;5.50;;;;;;;29.84;42.14;100536.53;4982220;28;20032;-71
2022/08/16 11:04:21;;;;;;;11.60;5.50;;;;;;;29.90;42.34;100546.53;4986000;28;20027;-71
2022/08/16 11:06:47;;;;;;;9.00;5.03;;;;;;;30.74;40.76;100537.75;4995518;28;20429;-72
2022/08/16 11:09:13;;;;;;;12.32;4.78;;;;;;;30.96;40.62;100537.97;4997518;28;20080;-74
2022/08/16 11:11:38;;;;;;;12.02;5.80;;;;;;;30.77;41.54;100542.72;4971477;28;20062;-71